PATA/TAL METAR and TAF weather

Enter ICAO airport designator
Station Type Date Time Source
PATA METAR 2019/12/07 04:52 UTC NOAA

PATA 070452Z 08005KT 10SM CLR M24/M28 A2977 RMK AO2 SLP093 T12391283


Station Type Date Time Source
PATA Decoded METAR 2019/12/07 04:52 UTC NOAA

TANANA CALHOUN MEMORIAL AIRPORT , AK, United States (PATA) 65-10N 152-06W 67M
Dec 06, 2019 - 11:52 PM EST / 2019.12.07 0452 UTC
Wind: from the E (080 degrees) at 6 MPH (5 KT):0
Visibility: 10 mile(s):0
Sky conditions: clear
Temperature: -11.0 F (-23.9 C)
Windchill: -25 F (-32 C):2
Dew Point: -18.9 F (-28.3 C)
Relative Humidity: 66%
Pressure (altimeter): 29.77 in. Hg (1008 hPa)
ob: PATA 070452Z 08005KT 10SM CLR M24/M28 A2977 RMK AO2 SLP093 T12391283
cycle: 5

Station Type Date Time Source
PATA TAF 2019/12/06 18:33 UTC NOAA

TAF PATA 061731Z 0618/0718 02005KT P6SM VCFG SKC

Example: see airport list